»·PEaware :: N5268J KSBA-KBUR

N5268J :: KSBA-KBUR

FLIGHT INFORMATION

Flight Status: Arrived
Operator: Privately registered:
United States
More flights under this callsign
Pilot: John P. (31881)
Aircraft: BEECH AIRCRAFT BONANZA
(BE36)
More flights by this aircraft type
Origin: KSBA Santa Barbara Mun
United States
Destination: KBUR Bob Hope-Burbank
United States
More flights between these airports :: More routes between these airports
Route: +SBA BUR
File this flight plan on PilotEdge
Remarks:
Altitude:
(Current/Filed)
5,500ft
Speed:
(Current/Filed)
167kts
Departed: 18-Oct-20 01:32 PM
Arrived: 18-Oct-20 02:03 PM
Distance/Time
Traveled:
108nm/0:30
Distance/Time
To Go:
Arrived

Flight Plot

Page will automatically refresh every two minutes.

Flight plan parsing failed; only flown route is shown


Map Options




Map Legend


Flown Route
Filed Route
Departure Airport
Arrival Airport
Navaid (VOR, NDB)
Fix

Horizontal Profiles

Position Reports

Time Latitude Longitude Heading Altitude Ground
Speed
18-Oct-20 13:10 34.432367 -119.836192 248 11ft 0kts
18-Oct-20 13:11 34.432367 -119.836192 248 12ft 0kts
18-Oct-20 13:13 34.432367 -119.836192 248 12ft 0kts
18-Oct-20 13:14 34.432367 -119.836192 248 12ft 0kts
18-Oct-20 13:15 34.432367 -119.836192 248 12ft 0kts
18-Oct-20 13:16 34.432367 -119.836192 248 12ft 0kts
18-Oct-20 13:17 34.432367 -119.836192 248 12ft 0kts
18-Oct-20 13:18 34.432367 -119.836192 248 12ft 0kts
18-Oct-20 13:19 34.432367 -119.836192 248 12ft 0kts
18-Oct-20 13:20 34.432367 -119.836192 248 12ft 0kts
18-Oct-20 13:21 34.432367 -119.836192 248 12ft 0kts
18-Oct-20 13:22 34.432367 -119.836192 248 12ft 0kts
18-Oct-20 13:23 34.432367 -119.836192 248 12ft 0kts
18-Oct-20 13:24 34.432367 -119.836192 248 12ft 0kts
18-Oct-20 13:25 34.432367 -119.836192 248 12ft 0kts
18-Oct-20 13:26 34.432367 -119.836192 248 12ft 0kts
18-Oct-20 13:27 34.432367 -119.836192 248 12ft 0kts
18-Oct-20 13:28 34.432367 -119.836192 248 12ft 0kts
18-Oct-20 13:29 34.432103 -119.836139 172 12ft 4kts
18-Oct-20 13:30 34.430680 -119.839824 250 11ft 0kts
18-Oct-20 13:30 34.430680 -119.839825 250 11ft 0kts
18-Oct-20 13:32 34.417053 -119.836240 166 217ft 108kts
18-Oct-20 13:32 34.390466 -119.829294 166 1179ft 121kts
18-Oct-20 13:33 34.371421 -119.801529 55 1486ft 149kts
18-Oct-20 13:34 34.389009 -119.771145 52 2826ft 104kts
18-Oct-20 13:35 34.405973 -119.741993 51 3940ft 107kts
18-Oct-20 13:36 34.406189 -119.704697 96 4956ft 116kts
18-Oct-20 13:37 34.399707 -119.661518 98 5453ft 151kts
18-Oct-20 13:38 34.391720 -119.607659 98 5471ft 171kts
18-Oct-20 13:39 34.383271 -119.550502 98 5473ft 173kts
18-Oct-20 13:40 34.374727 -119.492988 98 5472ft 173kts
18-Oct-20 13:41 34.366211 -119.435828 98 5475ft 174kts
18-Oct-20 13:42 34.357458 -119.377134 98 5470ft 177kts
18-Oct-20 13:43 34.348603 -119.318276 99 5479ft 178kts
18-Oct-20 13:44 34.339790 -119.259759 99 5485ft 177kts
18-Oct-20 13:45 34.330956 -119.201167 99 5482ft 177kts
18-Oct-20 13:46 34.322113 -119.142785 99 5485ft 175kts
18-Oct-20 13:47 34.313355 -119.085164 100 5496ft 175kts
18-Oct-20 13:48 34.304529 -119.027309 99 5492ft 175kts
18-Oct-20 13:49 34.295320 -118.967163 100 5110ft 185kts
18-Oct-20 13:50 34.286080 -118.906973 99 4705ft 177kts
18-Oct-20 13:51 34.277492 -118.851198 99 4253ft 163kts
18-Oct-20 13:52 34.269264 -118.797960 99 3655ft 160kts
18-Oct-20 13:53 34.260824 -118.743466 99 3490ft 172kts
18-Oct-20 13:54 34.251890 -118.686063 99 3481ft 173kts
18-Oct-20 13:55 34.243768 -118.633953 99 3019ft 137kts
18-Oct-20 13:56 34.236544 -118.587318 98 2992ft 153kts
18-Oct-20 13:57 34.229126 -118.535737 98 2975ft 157kts
18-Oct-20 13:58 34.221647 -118.483037 98 2766ft 164kts
18-Oct-20 13:59 34.207194 -118.432640 118 2448ft 137kts
18-Oct-20 14:00 34.198376 -118.395108 92 1429ft 109kts
18-Oct-20 14:01 34.197903 -118.362446 93 716ft 44kts
18-Oct-20 14:02 34.198386 -118.360216 357 716ft 0kts
18-Oct-20 14:03 34.199549 -118.360124 20 717ft 0kts
18-Oct-20 14:04 0.000000 0.000000 0 0ft 0kts
18-Oct-20 14:05 0.000408 0.013975 359 3ft 0kts
18-Oct-20 14:06 0.000408 0.013975 359 3ft 0kts
18-Oct-20 14:07 0.000408 0.013975 359 3ft 0kts
18-Oct-20 14:08 0.000408 0.013975 359 3ft 0kts
18-Oct-20 14:09 0.000408 0.013975 359 3ft 0kts
18-Oct-20 14:10 0.000408 0.013975 359 3ft 0kts
18-Oct-20 14:11 0.000408 0.013975 359 3ft 0kts
18-Oct-20 14:12 0.000408 0.013975 359 3ft 0kts
18-Oct-20 14:13 0.000408 0.013975 359 3ft 0kts
18-Oct-20 14:14 0.000408 0.013975 359 3ft 0kts
18-Oct-20 14:15 0.000408 0.013975 359 3ft 0kts
18-Oct-20 14:16 33.671283 -117.867811 93 47ft 0kts

Navigation Log

Ident Type
Flight plan parsing failed, navigation log unavailable